70KT winds at NZCH

Can anyone confirm 70+kt winds at NZCH?

Winds are 060 at 23. You may have ended a flight at cruising altitude with 70kt winds aloft. It is a common issue I’ve seen.

1 Like

Here is the real metar:
NZCH 142330Z AUTO 07025KT 9999 SCT026/// 15/08 Q1012 NOSIG

Either an IF error or what Nate said.

What’s your altitude? It will be worse as you get higher.

Yeah that might have been what happened. Just reloaded and its calmer. Someone can flag for closing! Thanks all.

1 Like